sensor_id;sensor_type;location;lat;lon;timestamp;temperature;humidity
32293;DHT22;43233;48.608;8.838;2024-02-21T00:00:52;5.30;68.50
32293;DHT22;43233;48.608;8.838;2024-02-21T00:03:18;5.30;68.10
32293;DHT22;43233;48.608;8.838;2024-02-21T00:05:43;5.30;67.90
32293;DHT22;43233;48.608;8.838;2024-02-21T00:08:09;5.30;67.80
32293;DHT22;43233;48.608;8.838;2024-02-21T00:10:34;5.30;67.80
32293;DHT22;43233;48.608;8.838;2024-02-21T00:13:01;5.30;68.10
32293;DHT22;43233;48.608;8.838;2024-02-21T00:15:27;5.20;68.20
32293;DHT22;43233;48.608;8.838;2024-02-21T00:17:52;5.20;68.40
32293;DHT22;43233;48.608;8.838;2024-02-21T00:20:18;5.20;68.50
32293;DHT22;43233;48.608;8.838;2024-02-21T00:22:44;5.20;69.40
32293;DHT22;43233;48.608;8.838;2024-02-21T00:25:10;5.30;68.60
32293;DHT22;43233;48.608;8.838;2024-02-21T00:27:35;5.30;68.40
32293;DHT22;43233;48.608;8.838;2024-02-21T00:30:02;5.30;68.40
32293;DHT22;43233;48.608;8.838;2024-02-21T00:32:27;5.30;68.20
32293;DHT22;43233;48.608;8.838;2024-02-21T00:34:53;5.30;68.30
32293;DHT22;43233;48.608;8.838;2024-02-21T00:37:19;5.30;68.10
32293;DHT22;43233;48.608;8.838;2024-02-21T00:39:44;5.40;67.90
32293;DHT22;43233;48.608;8.838;2024-02-21T00:42:10;5.30;67.90
32293;DHT22;43233;48.608;8.838;2024-02-21T00:44:36;5.40;67.80
32293;DHT22;43233;48.608;8.838;2024-02-21T00:47:01;5.40;67.80
32293;DHT22;43233;48.608;8.838;2024-02-21T00:49:27;5.40;67.70
32293;DHT22;43233;48.608;8.838;2024-02-21T00:51:52;5.40;67.50
32293;DHT22;43233;48.608;8.838;2024-02-21T00:54:18;5.40;67.40
32293;DHT22;43233;48.608;8.838;2024-02-21T00:56:43;5.40;67.30
32293;DHT22;43233;48.608;8.838;2024-02-21T00:59:09;5.40;67.30
32293;DHT22;43233;48.608;8.838;2024-02-21T01:01:35;5.40;67.50
32293;DHT22;43233;48.608;8.838;2024-02-21T01:04:00;5.30;67.50
32293;DHT22;43233;48.608;8.838;2024-02-21T01:06:26;5.30;67.60
32293;DHT22;43233;48.608;8.838;2024-02-21T01:08:51;5.20;67.70
32293;DHT22;43233;48.608;8.838;2024-02-21T01:11:17;5.10;68.30
32293;DHT22;43233;48.608;8.838;2024-02-21T01:13:43;4.90;68.80
32293;DHT22;43233;48.608;8.838;2024-02-21T01:16:09;4.80;69.70
32293;DHT22;43233;48.608;8.838;2024-02-21T01:18:37;4.80;70.30
32293;DHT22;43233;48.608;8.838;2024-02-21T01:21:03;4.70;70.80
32293;DHT22;43233;48.608;8.838;2024-02-21T01:23:32;4.60;71.30
32293;DHT22;43233;48.608;8.838;2024-02-21T01:25:58;4.50;71.80
32293;DHT22;43233;48.608;8.838;2024-02-21T01:28:23;4.40;72.40
32293;DHT22;43233;48.608;8.838;2024-02-21T01:30:49;4.40;72.90
32293;DHT22;43233;48.608;8.838;2024-02-21T01:33:15;4.30;73.30
32293;DHT22;43233;48.608;8.838;2024-02-21T01:35:40;4.30;73.50
32293;DHT22;43233;48.608;8.838;2024-02-21T01:38:06;4.20;73.60
32293;DHT22;43233;48.608;8.838;2024-02-21T01:40:31;4.20;74.00
32293;DHT22;43233;48.608;8.838;2024-02-21T01:42:57;4.20;74.20
32293;DHT22;43233;48.608;8.838;2024-02-21T01:45:23;4.20;74.40
32293;DHT22;43233;48.608;8.838;2024-02-21T01:47:50;4.20;74.40
32293;DHT22;43233;48.608;8.838;2024-02-21T01:50:17;4.20;74.50
32293;DHT22;43233;48.608;8.838;2024-02-21T01:52:45;4.20;74.30
32293;DHT22;43233;48.608;8.838;2024-02-21T01:55:13;4.20;74.50
32293;DHT22;43233;48.608;8.838;2024-02-21T01:57:41;4.10;74.70
32293;DHT22;43233;48.608;8.838;2024-02-21T02:00:09;4.10;74.80
32293;DHT22;43233;48.608;8.838;2024-02-21T02:02:36;4.20;74.80
32293;DHT22;43233;48.608;8.838;2024-02-21T02:05:04;4.20;74.80
32293;DHT22;43233;48.608;8.838;2024-02-21T02:07:31;4.20;74.80
32293;DHT22;43233;48.608;8.838;2024-02-21T02:09:57;4.20;75.00
32293;DHT22;43233;48.608;8.838;2024-02-21T02:12:23;4.30;76.10
32293;DHT22;43233;48.608;8.838;2024-02-21T02:14:58;4.40;75.20
32293;DHT22;43233;48.608;8.838;2024-02-21T02:17:24;4.50;75.40
32293;DHT22;43233;48.608;8.838;2024-02-21T02:19:50;4.60;74.70
32293;DHT22;43233;48.608;8.838;2024-02-21T02:22:20;4.70;74.20
32293;DHT22;43233;48.608;8.838;2024-02-21T02:24:47;4.70;73.80
32293;DHT22;43233;48.608;8.838;2024-02-21T02:27:13;4.80;73.00
32293;DHT22;43233;48.608;8.838;2024-02-21T02:29:38;4.90;73.00
32293;DHT22;43233;48.608;8.838;2024-02-21T02:32:04;4.90;72.30
32293;DHT22;43233;48.608;8.838;2024-02-21T02:34:30;5.00;71.80
32293;DHT22;43233;48.608;8.838;2024-02-21T02:36:56;5.00;71.30
32293;DHT22;43233;48.608;8.838;2024-02-21T02:39:21;5.00;70.70
32293;DHT22;43233;48.608;8.838;2024-02-21T02:41:47;5.10;70.50
32293;DHT22;43233;48.608;8.838;2024-02-21T02:44:12;5.10;70.20
32293;DHT22;43233;48.608;8.838;2024-02-21T02:46:40;5.20;69.40
32293;DHT22;43233;48.608;8.838;2024-02-21T02:49:06;5.20;69.10
32293;DHT22;43233;48.608;8.838;2024-02-21T02:51:32;5.30;68.60
32293;DHT22;43233;48.608;8.838;2024-02-21T02:53:57;5.30;68.40
32293;DHT22;43233;48.608;8.838;2024-02-21T02:56:23;5.30;68.00
32293;DHT22;43233;48.608;8.838;2024-02-21T02:58:49;5.30;67.50
32293;DHT22;43233;48.608;8.838;2024-02-21T03:01:14;5.30;67.40
32293;DHT22;43233;48.608;8.838;2024-02-21T03:03:40;5.30;67.50
32293;DHT22;43233;48.608;8.838;2024-02-21T03:06:06;5.30;67.60
32293;DHT22;43233;48.608;8.838;2024-02-21T03:08:31;5.30;67.20
32293;DHT22;43233;48.608;8.838;2024-02-21T03:10:58;5.40;67.20
32293;DHT22;43233;48.608;8.838;2024-02-21T03:13:25;5.40;67.00
32293;DHT22;43233;48.608;8.838;2024-02-21T03:15:51;5.30;67.00
32293;DHT22;43233;48.608;8.838;2024-02-21T03:18:16;5.30;67.20
32293;DHT22;43233;48.608;8.838;2024-02-21T03:20:42;5.30;66.80
32293;DHT22;43233;48.608;8.838;2024-02-21T03:23:07;5.30;66.80
32293;DHT22;43233;48.608;8.838;2024-02-21T03:25:33;5.30;66.70
32293;DHT22;43233;48.608;8.838;2024-02-21T03:27:58;5.30;66.50
32293;DHT22;43233;48.608;8.838;2024-02-21T03:30:24;5.30;66.30
32293;DHT22;43233;48.608;8.838;2024-02-21T03:32:50;5.30;66.20
32293;DHT22;43233;48.608;8.838;2024-02-21T03:35:16;5.30;66.10
32293;DHT22;43233;48.608;8.838;2024-02-21T03:37:42;5.30;66.10
32293;DHT22;43233;48.608;8.838;2024-02-21T03:40:10;5.30;65.80
32293;DHT22;43233;48.608;8.838;2024-02-21T03:42:36;5.20;65.90
32293;DHT22;43233;48.608;8.838;2024-02-21T03:45:01;5.30;66.10
32293;DHT22;43233;48.608;8.838;2024-02-21T03:47:27;5.30;66.00
32293;DHT22;43233;48.608;8.838;2024-02-21T03:49:52;5.30;65.80
32293;DHT22;43233;48.608;8.838;2024-02-21T03:52:18;5.20;65.80
32293;DHT22;43233;48.608;8.838;2024-02-21T03:54:43;5.20;66.10
32293;DHT22;43233;48.608;8.838;2024-02-21T03:57:10;5.20;66.20
32293;DHT22;43233;48.608;8.838;2024-02-21T03:59:35;5.10;66.60
32293;DHT22;43233;48.608;8.838;2024-02-21T04:02:01;5.10;66.80
32293;DHT22;43233;48.608;8.838;2024-02-21T04:04:29;5.00;67.20
32293;DHT22;43233;48.608;8.838;2024-02-21T04:06:54;5.00;67.30
32293;DHT22;43233;48.608;8.838;2024-02-21T04:09:20;5.00;67.70
32293;DHT22;43233;48.608;8.838;2024-02-21T04:11:46;5.00;67.60
32293;DHT22;43233;48.608;8.838;2024-02-21T04:14:11;4.90;67.90
32293;DHT22;43233;48.608;8.838;2024-02-21T04:16:37;4.80;68.20
32293;DHT22;43233;48.608;8.838;2024-02-21T04:19:03;4.80;68.20
32293;DHT22;43233;48.608;8.838;2024-02-21T04:21:29;4.80;68.50
32293;DHT22;43233;48.608;8.838;2024-02-21T04:23:54;4.80;68.50
32293;DHT22;43233;48.608;8.838;2024-02-21T04:26:20;4.70;68.70
32293;DHT22;43233;48.608;8.838;2024-02-21T04:28:46;4.70;68.90
32293;DHT22;43233;48.608;8.838;2024-02-21T04:31:12;4.80;69.00
32293;DHT22;43233;48.608;8.838;2024-02-21T04:33:38;4.70;68.90
32293;DHT22;43233;48.608;8.838;2024-02-21T04:36:04;4.80;68.70
32293;DHT22;43233;48.608;8.838;2024-02-21T04:38:30;4.70;68.40
32293;DHT22;43233;48.608;8.838;2024-02-21T04:40:56;4.80;68.10
32293;DHT22;43233;48.608;8.838;2024-02-21T04:43:24;4.70;68.00
32293;DHT22;43233;48.608;8.838;2024-02-21T04:45:50;4.70;67.90
32293;DHT22;43233;48.608;8.838;2024-02-21T04:48:16;4.60;68.10
32293;DHT22;43233;48.608;8.838;2024-02-21T04:50:41;4.60;68.30
32293;DHT22;43233;48.608;8.838;2024-02-21T04:53:07;4.50;68.40
32293;DHT22;43233;48.608;8.838;2024-02-21T04:55:33;4.50;68.80
32293;DHT22;43233;48.608;8.838;2024-02-21T04:57:59;4.40;69.00
32293;DHT22;43233;48.608;8.838;2024-02-21T05:00:26;4.40;69.10
32293;DHT22;43233;48.608;8.838;2024-02-21T05:02:51;4.40;69.10
32293;DHT22;43233;48.608;8.838;2024-02-21T05:05:17;4.40;69.10
32293;DHT22;43233;48.608;8.838;2024-02-21T05:07:42;4.40;69.20
32293;DHT22;43233;48.608;8.838;2024-02-21T05:10:08;4.40;69.30
32293;DHT22;43233;48.608;8.838;2024-02-21T05:12:35;4.40;69.30
32293;DHT22;43233;48.608;8.838;2024-02-21T05:15:01;4.40;69.20
32293;DHT22;43233;48.608;8.838;2024-02-21T05:17:26;4.40;68.80
32293;DHT22;43233;48.608;8.838;2024-02-21T05:19:52;4.30;69.00
32293;DHT22;43233;48.608;8.838;2024-02-21T05:22:17;4.30;69.20
32293;DHT22;43233;48.608;8.838;2024-02-21T05:24:43;4.30;69.40
32293;DHT22;43233;48.608;8.838;2024-02-21T05:27:08;4.30;69.50
32293;DHT22;43233;48.608;8.838;2024-02-21T05:29:34;4.20;69.20
32293;DHT22;43233;48.608;8.838;2024-02-21T05:32:00;4.20;69.20
32293;DHT22;43233;48.608;8.838;2024-02-21T05:34:26;4.20;69.20
32293;DHT22;43233;48.608;8.838;2024-02-21T05:36:52;4.20;69.10
32293;DHT22;43233;48.608;8.838;2024-02-21T05:39:18;4.20;69.10
32293;DHT22;43233;48.608;8.838;2024-02-21T05:41:44;4.20;69.00
32293;DHT22;43233;48.608;8.838;2024-02-21T05:44:10;4.20;69.50
32293;DHT22;43233;48.608;8.838;2024-02-21T05:46:36;4.20;69.10
32293;DHT22;43233;48.608;8.838;2024-02-21T05:49:02;4.10;69.10
32293;DHT22;43233;48.608;8.838;2024-02-21T05:51:27;4.20;69.00
32293;DHT22;43233;48.608;8.838;2024-02-21T05:53:53;4.10;69.00
32293;DHT22;43233;48.608;8.838;2024-02-21T05:56:18;4.10;69.10
32293;DHT22;43233;48.608;8.838;2024-02-21T05:58:44;4.10;68.60
32293;DHT22;43233;48.608;8.838;2024-02-21T06:01:11;4.10;68.80
32293;DHT22;43233;48.608;8.838;2024-02-21T06:03:37;4.10;68.80
32293;DHT22;43233;48.608;8.838;2024-02-21T06:06:03;4.10;68.60
32293;DHT22;43233;48.608;8.838;2024-02-21T06:08:30;4.10;68.80
32293;DHT22;43233;48.608;8.838;2024-02-21T06:10:56;4.00;68.70
32293;DHT22;43233;48.608;8.838;2024-02-21T06:13:22;4.00;68.80
32293;DHT22;43233;48.608;8.838;2024-02-21T06:15:48;4.00;68.70
32293;DHT22;43233;48.608;8.838;2024-02-21T06:18:16;4.00;68.70
32293;DHT22;43233;48.608;8.838;2024-02-21T06:20:42;4.00;68.70
32293;DHT22;43233;48.608;8.838;2024-02-21T06:23:09;4.00;68.70
32293;DHT22;43233;48.608;8.838;2024-02-21T06:25:35;4.00;68.60
32293;DHT22;43233;48.608;8.838;2024-02-21T06:28:00;4.00;68.60
32293;DHT22;43233;48.608;8.838;2024-02-21T06:30:26;4.00;68.30
32293;DHT22;43233;48.608;8.838;2024-02-21T06:32:52;4.10;68.30
32293;DHT22;43233;48.608;8.838;2024-02-21T06:35:17;4.10;68.00
32293;DHT22;43233;48.608;8.838;2024-02-21T06:37:43;4.20;67.50
32293;DHT22;43233;48.608;8.838;2024-02-21T06:40:10;4.20;67.30
32293;DHT22;43233;48.608;8.838;2024-02-21T06:42:36;4.20;67.30
32293;DHT22;43233;48.608;8.838;2024-02-21T06:45:02;4.20;66.80
32293;DHT22;43233;48.608;8.838;2024-02-21T06:47:28;4.20;66.90
32293;DHT22;43233;48.608;8.838;2024-02-21T06:49:53;4.20;66.70
32293;DHT22;43233;48.608;8.838;2024-02-21T06:52:19;4.20;66.60
32293;DHT22;43233;48.608;8.838;2024-02-21T06:54:49;4.20;66.60
32293;DHT22;43233;48.608;8.838;2024-02-21T06:57:14;4.30;66.90
32293;DHT22;43233;48.608;8.838;2024-02-21T06:59:43;4.30;66.60
32293;DHT22;43233;48.608;8.838;2024-02-21T07:02:08;4.40;66.50
32293;DHT22;43233;48.608;8.838;2024-02-21T07:04:34;4.40;66.10
32293;DHT22;43233;48.608;8.838;2024-02-21T07:07:00;4.50;65.80
32293;DHT22;43233;48.608;8.838;2024-02-21T07:09:26;4.60;65.30
32293;DHT22;43233;48.608;8.838;2024-02-21T07:11:54;4.70;66.00
32293;DHT22;43233;48.608;8.838;2024-02-21T07:14:19;4.80;64.50
32293;DHT22;43233;48.608;8.838;2024-02-21T07:16:45;4.90;63.40
32293;DHT22;43233;48.608;8.838;2024-02-21T07:19:10;5.10;63.10
32293;DHT22;43233;48.608;8.838;2024-02-21T07:21:36;5.20;62.60
32293;DHT22;43233;48.608;8.838;2024-02-21T07:24:04;5.30;61.80
32293;DHT22;43233;48.608;8.838;2024-02-21T07:26:31;5.40;61.40
32293;DHT22;43233;48.608;8.838;2024-02-21T07:28:56;5.50;61.00
32293;DHT22;43233;48.608;8.838;2024-02-21T07:31:22;5.60;59.90
32293;DHT22;43233;48.608;8.838;2024-02-21T07:33:47;5.60;60.00
32293;DHT22;43233;48.608;8.838;2024-02-21T07:36:15;5.70;59.60
32293;DHT22;43233;48.608;8.838;2024-02-21T07:38:41;5.80;59.40
32293;DHT22;43233;48.608;8.838;2024-02-21T07:41:07;5.90;59.20
32293;DHT22;43233;48.608;8.838;2024-02-21T07:43:32;6.10;58.90
32293;DHT22;43233;48.608;8.838;2024-02-21T07:45:58;6.20;58.10
32293;DHT22;43233;48.608;8.838;2024-02-21T07:48:23;6.30;57.70
32293;DHT22;43233;48.608;8.838;2024-02-21T07:50:52;6.30;57.90
32293;DHT22;43233;48.608;8.838;2024-02-21T07:53:20;6.50;57.40
32293;DHT22;43233;48.608;8.838;2024-02-21T07:55:45;6.50;57.30
32293;DHT22;43233;48.608;8.838;2024-02-21T07:58:11;6.60;57.10
32293;DHT22;43233;48.608;8.838;2024-02-21T08:00:36;6.60;57.00
32293;DHT22;43233;48.608;8.838;2024-02-21T08:03:02;6.60;57.10
32293;DHT22;43233;48.608;8.838;2024-02-21T08:05:28;6.60;56.90
32293;DHT22;43233;48.608;8.838;2024-02-21T08:07:55;6.70;56.70
32293;DHT22;43233;48.608;8.838;2024-02-21T08:10:21;6.60;56.30
32293;DHT22;43233;48.608;8.838;2024-02-21T08:12:46;6.60;56.60
32293;DHT22;43233;48.608;8.838;2024-02-21T08:15:12;6.60;56.90
32293;DHT22;43233;48.608;8.838;2024-02-21T08:17:38;6.60;56.50
32293;DHT22;43233;48.608;8.838;2024-02-21T08:20:04;6.70;56.60
32293;DHT22;43233;48.608;8.838;2024-02-21T08:22:30;6.80;56.70
32293;DHT22;43233;48.608;8.838;2024-02-21T08:24:55;6.80;56.70
32293;DHT22;43233;48.608;8.838;2024-02-21T08:27:21;7.00;56.90
32293;DHT22;43233;48.608;8.838;2024-02-21T08:29:47;7.10;57.40
32293;DHT22;43233;48.608;8.838;2024-02-21T08:32:12;7.20;56.50
32293;DHT22;43233;48.608;8.838;2024-02-21T08:34:38;7.40;56.30
32293;DHT22;43233;48.608;8.838;2024-02-21T08:37:04;7.40;56.30
32293;DHT22;43233;48.608;8.838;2024-02-21T08:39:30;7.40;56.20
32293;DHT22;43233;48.608;8.838;2024-02-21T08:41:56;7.50;56.70
32293;DHT22;43233;48.608;8.838;2024-02-21T08:44:23;7.50;55.90
32293;DHT22;43233;48.608;8.838;2024-02-21T08:46:51;7.50;55.60
32293;DHT22;43233;48.608;8.838;2024-02-21T08:49:16;7.60;55.10
32293;DHT22;43233;48.608;8.838;2024-02-21T08:51:42;7.70;54.40
32293;DHT22;43233;48.608;8.838;2024-02-21T08:54:08;7.60;54.10
32293;DHT22;43233;48.608;8.838;2024-02-21T08:56:34;7.70;53.20
32293;DHT22;43233;48.608;8.838;2024-02-21T08:59:01;7.60;52.90
32293;DHT22;43233;48.608;8.838;2024-02-21T09:01:26;7.60;52.30
32293;DHT22;43233;48.608;8.838;2024-02-21T09:03:52;7.70;52.80
32293;DHT22;43233;48.608;8.838;2024-02-21T09:06:19;7.70;53.10
32293;DHT22;43233;48.608;8.838;2024-02-21T09:08:45;7.80;53.10
32293;DHT22;43233;48.608;8.838;2024-02-21T09:11:11;7.80;53.00
32293;DHT22;43233;48.608;8.838;2024-02-21T09:13:37;7.90;52.90
32293;DHT22;43233;48.608;8.838;2024-02-21T09:16:02;8.00;52.60
32293;DHT22;43233;48.608;8.838;2024-02-21T09:18:29;8.10;52.60
32293;DHT22;43233;48.608;8.838;2024-02-21T09:20:55;8.20;52.10
32293;DHT22;43233;48.608;8.838;2024-02-21T09:23:20;8.40;51.40
32293;DHT22;43233;48.608;8.838;2024-02-21T09:25:49;8.50;50.10
32293;DHT22;43233;48.608;8.838;2024-02-21T09:28:14;8.60;49.50
32293;DHT22;43233;48.608;8.838;2024-02-21T09:30:40;8.80;49.20
32293;DHT22;43233;48.608;8.838;2024-02-21T09:33:05;9.00;49.00
32293;DHT22;43233;48.608;8.838;2024-02-21T09:35:31;9.30;48.60
32293;DHT22;43233;48.608;8.838;2024-02-21T09:37:59;9.50;48.00
32293;DHT22;43233;48.608;8.838;2024-02-21T09:40:25;9.70;46.50
32293;DHT22;43233;48.608;8.838;2024-02-21T09:43:01;10.10;44.80
32293;DHT22;43233;48.608;8.838;2024-02-21T09:45:28;10.30;44.30
32293;DHT22;43233;48.608;8.838;2024-02-21T09:50:53;10.70;43.70
32293;DHT22;43233;48.608;8.838;2024-02-21T09:53:21;10.90;42.90
32293;DHT22;43233;48.608;8.838;2024-02-21T09:55:48;11.20;41.80
32293;DHT22;43233;48.608;8.838;2024-02-21T09:58:14;11.50;39.50
32293;DHT22;43233;48.608;8.838;2024-02-21T10:00:39;11.70;38.20
32293;DHT22;43233;48.608;8.838;2024-02-21T10:03:05;11.80;37.60
32293;DHT22;43233;48.608;8.838;2024-02-21T10:05:34;11.90;38.10
32293;DHT22;43233;48.608;8.838;2024-02-21T10:08:01;11.80;36.90
32293;DHT22;43233;48.608;8.838;2024-02-21T10:10:26;11.90;37.70
32293;DHT22;43233;48.608;8.838;2024-02-21T10:12:53;11.90;36.50
32293;DHT22;43233;48.608;8.838;2024-02-21T10:15:24;11.90;35.40
32293;DHT22;43233;48.608;8.838;2024-02-21T10:18:00;11.90;36.60
32293;DHT22;43233;48.608;8.838;2024-02-21T10:20:27;11.90;36.10
32293;DHT22;43233;48.608;8.838;2024-02-21T10:23:05;11.90;36.00
32293;DHT22;43233;48.608;8.838;2024-02-21T10:25:35;11.90;35.50
32293;DHT22;43233;48.608;8.838;2024-02-21T10:28:03;11.80;36.80
32293;DHT22;43233;48.608;8.838;2024-02-21T10:30:30;11.80;36.70
32293;DHT22;43233;48.608;8.838;2024-02-21T10:32:56;11.90;36.60
32293;DHT22;43233;48.608;8.838;2024-02-21T10:35:34;11.90;37.40
32293;DHT22;43233;48.608;8.838;2024-02-21T10:38:00;12.10;36.70
32293;DHT22;43233;48.608;8.838;2024-02-21T10:40:27;12.30;36.10
32293;DHT22;43233;48.608;8.838;2024-02-21T10:42:59;12.20;36.20
32293;DHT22;43233;48.608;8.838;2024-02-21T10:45:34;12.20;36.20
32293;DHT22;43233;48.608;8.838;2024-02-21T10:50:43;12.20;36.00
32293;DHT22;43233;48.608;8.838;2024-02-21T10:56:16;12.20;37.40
32293;DHT22;43233;48.608;8.838;2024-02-21T10:58:46;12.30;34.80
32293;DHT22;43233;48.608;8.838;2024-02-21T11:01:13;12.30;34.30
32293;DHT22;43233;48.608;8.838;2024-02-21T11:03:42;12.50;33.70
32293;DHT22;43233;48.608;8.838;2024-02-21T11:06:10;12.60;33.60
32293;DHT22;43233;48.608;8.838;2024-02-21T11:08:36;12.60;33.80
32293;DHT22;43233;48.608;8.838;2024-02-21T11:11:02;12.50;33.50
32293;DHT22;43233;48.608;8.838;2024-02-21T11:13:35;12.40;33.20
32293;DHT22;43233;48.608;8.838;2024-02-21T11:16:11;12.30;33.60
32293;DHT22;43233;48.608;8.838;2024-02-21T11:18:37;12.30;33.30
32293;DHT22;43233;48.608;8.838;2024-02-21T11:21:03;12.20;34.30
32293;DHT22;43233;48.608;8.838;2024-02-21T11:23:32;12.20;33.60
32293;DHT22;43233;48.608;8.838;2024-02-21T11:26:18;12.10;34.00
32293;DHT22;43233;48.608;8.838;2024-02-21T11:28:45;12.00;34.30
32293;DHT22;43233;48.608;8.838;2024-02-21T11:31:21;12.00;34.30
32293;DHT22;43233;48.608;8.838;2024-02-21T11:33:47;12.00;34.60
32293;DHT22;43233;48.608;8.838;2024-02-21T11:36:24;12.10;34.80
32293;DHT22;43233;48.608;8.838;2024-02-21T11:38:51;12.20;33.90
32293;DHT22;43233;48.608;8.838;2024-02-21T11:41:17;12.30;34.70
32293;DHT22;43233;48.608;8.838;2024-02-21T11:43:42;12.50;34.10
32293;DHT22;43233;48.608;8.838;2024-02-21T11:46:08;12.70;34.00
32293;DHT22;43233;48.608;8.838;2024-02-21T11:48:34;13.00;33.90
32293;DHT22;43233;48.608;8.838;2024-02-21T11:51:00;13.20;33.40
32293;DHT22;43233;48.608;8.838;2024-02-21T11:53:26;13.40;32.10
32293;DHT22;43233;48.608;8.838;2024-02-21T11:55:56;13.50;31.90
32293;DHT22;43233;48.608;8.838;2024-02-21T11:58:22;13.70;31.60
32293;DHT22;43233;48.608;8.838;2024-02-21T12:00:48;13.80;29.70
32293;DHT22;43233;48.608;8.838;2024-02-21T12:03:14;13.90;31.10
32293;DHT22;43233;48.608;8.838;2024-02-21T12:05:41;14.10;31.50
32293;DHT22;43233;48.608;8.838;2024-02-21T12:08:07;14.30;30.20
32293;DHT22;43233;48.608;8.838;2024-02-21T12:10:34;14.40;26.20
32293;DHT22;43233;48.608;8.838;2024-02-21T12:13:08;14.60;26.20
32293;DHT22;43233;48.608;8.838;2024-02-21T12:15:34;14.70;25.90
32293;DHT22;43233;48.608;8.838;2024-02-21T12:18:00;14.70;24.20
32293;DHT22;43233;48.608;8.838;2024-02-21T12:20:26;14.80;22.10
32293;DHT22;43233;48.608;8.838;2024-02-21T12:22:52;14.70;21.70
32293;DHT22;43233;48.608;8.838;2024-02-21T12:25:21;14.50;21.80
32293;DHT22;43233;48.608;8.838;2024-02-21T12:27:51;14.40;21.10
32293;DHT22;43233;48.608;8.838;2024-02-21T12:30:17;14.30;20.50
32293;DHT22;43233;48.608;8.838;2024-02-21T12:32:43;14.10;21.30
32293;DHT22;43233;48.608;8.838;2024-02-21T12:35:09;14.00;21.50
32293;DHT22;43233;48.608;8.838;2024-02-21T12:37:34;13.90;21.50
32293;DHT22;43233;48.608;8.838;2024-02-21T12:40:00;13.80;22.20
32293;DHT22;43233;48.608;8.838;2024-02-21T12:42:26;13.80;22.60
32293;DHT22;43233;48.608;8.838;2024-02-21T12:44:54;13.80;21.40
32293;DHT22;43233;48.608;8.838;2024-02-21T12:47:19;13.70;21.00
32293;DHT22;43233;48.608;8.838;2024-02-21T12:49:49;13.70;21.70
32293;DHT22;43233;48.608;8.838;2024-02-21T12:52:14;13.70;21.30
32293;DHT22;43233;48.608;8.838;2024-02-21T12:54:40;13.70;21.70
32293;DHT22;43233;48.608;8.838;2024-02-21T12:57:05;13.80;20.70
32293;DHT22;43233;48.608;8.838;2024-02-21T12:59:31;13.80;21.50
32293;DHT22;43233;48.608;8.838;2024-02-21T13:01:57;13.80;21.30
32293;DHT22;43233;48.608;8.838;2024-02-21T13:04:22;13.80;22.20
32293;DHT22;43233;48.608;8.838;2024-02-21T13:06:48;13.80;22.00
32293;DHT22;43233;48.608;8.838;2024-02-21T13:09:14;13.80;24.10
32293;DHT22;43233;48.608;8.838;2024-02-21T13:11:40;13.70;24.70
32293;DHT22;43233;48.608;8.838;2024-02-21T13:14:07;13.60;25.30
32293;DHT22;43233;48.608;8.838;2024-02-21T13:16:32;13.60;25.30
32293;DHT22;43233;48.608;8.838;2024-02-21T13:19:05;13.60;25.20
32293;DHT22;43233;48.608;8.838;2024-02-21T13:21:30;13.60;25.60
32293;DHT22;43233;48.608;8.838;2024-02-21T13:23:56;13.50;25.50
32293;DHT22;43233;48.608;8.838;2024-02-21T13:26:22;13.40;25.90
32293;DHT22;43233;48.608;8.838;2024-02-21T13:28:48;13.30;25.80
32293;DHT22;43233;48.608;8.838;2024-02-21T13:31:14;13.30;25.20
32293;DHT22;43233;48.608;8.838;2024-02-21T13:33:40;13.20;25.70
32293;DHT22;43233;48.608;8.838;2024-02-21T13:36:05;13.20;25.90
32293;DHT22;43233;48.608;8.838;2024-02-21T13:38:31;13.20;25.70
32293;DHT22;43233;48.608;8.838;2024-02-21T13:40:57;13.20;25.60
32293;DHT22;43233;48.608;8.838;2024-02-21T13:43:22;13.20;25.70
32293;DHT22;43233;48.608;8.838;2024-02-21T13:45:57;13.10;25.20
32293;DHT22;43233;48.608;8.838;2024-02-21T13:48:23;13.10;23.10
32293;DHT22;43233;48.608;8.838;2024-02-21T13:50:50;13.00;23.10
32293;DHT22;43233;48.608;8.838;2024-02-21T13:53:16;13.00;23.30
32293;DHT22;43233;48.608;8.838;2024-02-21T13:55:44;12.90;23.20
32293;DHT22;43233;48.608;8.838;2024-02-21T13:58:10;12.90;22.20
32293;DHT22;43233;48.608;8.838;2024-02-21T14:00:35;12.80;22.40
32293;DHT22;43233;48.608;8.838;2024-02-21T14:03:01;12.80;23.00
32293;DHT22;43233;48.608;8.838;2024-02-21T14:05:27;12.70;23.00
32293;DHT22;43233;48.608;8.838;2024-02-21T14:07:53;12.70;24.30
32293;DHT22;43233;48.608;8.838;2024-02-21T14:10:20;12.60;24.90
32293;DHT22;43233;48.608;8.838;2024-02-21T14:12:46;12.60;26.00
32293;DHT22;43233;48.608;8.838;2024-02-21T14:15:13;12.50;24.10
32293;DHT22;43233;48.608;8.838;2024-02-21T14:17:39;12.50;25.40
32293;DHT22;43233;48.608;8.838;2024-02-21T14:20:06;12.50;26.40
32293;DHT22;43233;48.608;8.838;2024-02-21T14:22:32;12.40;26.80
32293;DHT22;43233;48.608;8.838;2024-02-21T14:24:58;12.40;26.80
32293;DHT22;43233;48.608;8.838;2024-02-21T14:27:24;12.30;27.50
32293;DHT22;43233;48.608;8.838;2024-02-21T14:29:49;12.30;28.20
32293;DHT22;43233;48.608;8.838;2024-02-21T14:32:15;12.30;28.50
32293;DHT22;43233;48.608;8.838;2024-02-21T14:34:40;12.30;27.60
32293;DHT22;43233;48.608;8.838;2024-02-21T14:37:06;12.30;27.70
32293;DHT22;43233;48.608;8.838;2024-02-21T14:39:32;12.20;28.80
32293;DHT22;43233;48.608;8.838;2024-02-21T14:42:00;12.20;29.40
32293;DHT22;43233;48.608;8.838;2024-02-21T14:44:25;12.10;30.40
32293;DHT22;43233;48.608;8.838;2024-02-21T14:46:52;12.10;31.10
32293;DHT22;43233;48.608;8.838;2024-02-21T14:49:18;12.00;31.00
32293;DHT22;43233;48.608;8.838;2024-02-21T14:51:44;12.00;28.50
32293;DHT22;43233;48.608;8.838;2024-02-21T14:54:10;12.00;29.10
32293;DHT22;43233;48.608;8.838;2024-02-21T14:56:36;12.00;27.80
32293;DHT22;43233;48.608;8.838;2024-02-21T14:59:02;12.00;28.10
32293;DHT22;43233;48.608;8.838;2024-02-21T15:01:29;12.00;28.60
32293;DHT22;43233;48.608;8.838;2024-02-21T15:03:55;12.00;28.90
32293;DHT22;43233;48.608;8.838;2024-02-21T15:06:20;12.00;28.30
32293;DHT22;43233;48.608;8.838;2024-02-21T15:08:46;12.00;28.50
32293;DHT22;43233;48.608;8.838;2024-02-21T15:11:11;12.00;28.70
32293;DHT22;43233;48.608;8.838;2024-02-21T15:13:37;11.90;28.20
32293;DHT22;43233;48.608;8.838;2024-02-21T15:16:03;11.90;28.20
32293;DHT22;43233;48.608;8.838;2024-02-21T15:18:30;11.90;30.10
32293;DHT22;43233;48.608;8.838;2024-02-21T15:20:58;11.90;31.80
32293;DHT22;43233;48.608;8.838;2024-02-21T15:23:24;11.90;32.60
32293;DHT22;43233;48.608;8.838;2024-02-21T15:25:50;11.80;33.50
32293;DHT22;43233;48.608;8.838;2024-02-21T15:28:16;11.80;34.40
32293;DHT22;43233;48.608;8.838;2024-02-21T15:30:42;11.80;34.80
32293;DHT22;43233;48.608;8.838;2024-02-21T15:33:07;11.80;34.70
32293;DHT22;43233;48.608;8.838;2024-02-21T15:35:33;11.80;35.50
32293;DHT22;43233;48.608;8.838;2024-02-21T15:37:59;11.80;36.50
32293;DHT22;43233;48.608;8.838;2024-02-21T15:40:25;11.70;37.80
32293;DHT22;43233;48.608;8.838;2024-02-21T15:42:50;11.70;38.50